Time;durP1;ratioP1;P1;durP2;ratioP2;P2;SDS_P1;SDS_P2;PMS_P1;PMS_P2;Temp;Humidity;BMP_temperature;BMP_pressure;BME280_temperature;BME280_humidity;BME280_pressure;Samples;Min_cycle;Max_cycle;Signal;HPM_P1;HPM_P2
2020/12/04 00:02:05;;;;;;;14.25;9.38;;;20.80;48.60;;;;;;5147032;27;20291;-54
2020/12/04 00:04:31;;;;;;;14.85;9.88;;;20.80;48.60;;;;;;5128465;27;20084;-57
2020/12/04 00:06:57;;;;;;;14.18;9.77;;;20.80;48.60;;;;;;5126149;27;20059;-57
2020/12/04 00:09:23;;;;;;;13.77;9.63;;;20.80;48.60;;;;;;5141333;27;20027;-54
2020/12/04 00:11:49;;;;;;;14.02;9.40;;;20.70;48.60;;;;;;5121262;27;20047;-58
2020/12/04 00:14:14;;;;;;;12.82;8.80;;;20.70;48.60;;;;;;5113682;27;20300;-54
2020/12/04 00:16:40;;;;;;;11.32;8.00;;;20.70;48.50;;;;;;5115334;27;20019;-57
2020/12/04 00:19:05;;;;;;;11.85;8.38;;;20.70;48.60;;;;;;5121298;27;20019;-57
2020/12/04 00:21:31;;;;;;;13.52;8.93;;;20.60;48.50;;;;;;5128251;27;20023;-56
2020/12/04 00:23:57;;;;;;;11.50;8.07;;;20.60;48.50;;;;;;5123207;27;20027;-53
2020/12/04 00:26:22;;;;;;;12.00;8.00;;;20.60;48.60;;;;;;5116204;27;20465;-57
2020/12/04 00:28:48;;;;;;;11.82;7.82;;;20.60;48.50;;;;;;5130412;27;20027;-56
2020/12/04 00:31:13;;;;;;;11.27;7.75;;;20.60;48.50;;;;;;5125206;27;20080;-55
2020/12/04 00:33:39;;;;;;;11.48;7.45;;;20.60;48.60;;;;;;5139513;27;20134;-56
2020/12/04 00:36:04;;;;;;;11.32;7.78;;;20.60;48.60;;;;;;5134130;27;20040;-56
2020/12/04 00:38:30;;;;;;;11.23;7.10;;;20.50;48.50;;;;;;5107417;27;20094;-55
2020/12/04 00:40:56;;;;;;;9.07;6.38;;;20.60;48.60;;;;;;5126538;27;20031;-56
2020/12/04 00:43:22;;;;;;;9.77;6.88;;;20.60;48.60;;;;;;5132690;27;20046;-58
2020/12/04 00:45:47;;;;;;;9.40;6.43;;;20.50;48.60;;;;;;5118886;27;20038;-54
2020/12/04 00:48:13;;;;;;;9.63;6.80;;;20.50;48.50;;;;;;5124725;27;20432;-54
2020/12/04 00:50:38;;;;;;;9.30;6.07;;;20.50;48.60;;;;;;5111077;27;20057;-55
2020/12/04 00:53:07;;;;;;;10.73;7.07;;;20.50;48.50;;;;;;5137844;27;20023;-56
2020/12/04 00:55:33;;;;;;;8.45;6.05;;;20.50;48.60;;;;;;5125858;27;20085;-56
2020/12/04 00:58:00;;;;;;;10.10;6.63;;;20.50;48.50;;;;;;5126094;27;20108;-54
2020/12/04 01:00:25;;;;;;;9.35;6.25;;;20.40;49.00;;;;;;5127581;27;20493;-53
2020/12/04 01:02:51;;;;;;;8.13;5.53;;;20.50;48.60;;;;;;5132344;27;20062;-56
2020/12/04 01:05:16;;;;;;;8.82;6.03;;;20.40;48.50;;;;;;5109253;27;20115;-55
2020/12/04 01:07:42;;;;;;;8.73;5.53;;;20.40;48.60;;;;;;5128943;27;20050;-55
2020/12/04 01:10:07;;;;;;;7.78;5.28;;;20.40;48.60;;;;;;5144913;27;20038;-55
2020/12/04 01:12:33;;;;;;;7.78;5.22;;;20.40;48.50;;;;;;5130586;27;20044;-51
2020/12/04 01:14:58;;;;;;;7.70;5.50;;;20.40;48.60;;;;;;5131506;27;20080;-53
2020/12/04 01:17:24;;;;;;;8.05;5.60;;;20.40;48.60;;;;;;5119469;27;20202;-53
2020/12/04 01:19:50;;;;;;;7.53;5.00;;;20.30;48.60;;;;;;5122242;27;20070;-57
2020/12/04 01:22:15;;;;;;;8.57;5.35;;;20.40;48.60;;;;;;5118120;27;20043;-54
2020/12/04 01:24:41;;;;;;;7.82;4.70;;;20.40;48.60;;;;;;5138680;27;20035;-54
2020/12/04 01:27:06;;;;;;;6.68;4.53;;;20.30;48.60;;;;;;5129611;27;20042;-56
2020/12/04 01:29:32;;;;;;;7.80;4.78;;;20.40;48.60;;;;;;5127781;27;20059;-56
2020/12/04 01:31:57;;;;;;;6.38;4.38;;;20.30;48.60;;;;;;5123228;27;20035;-58
2020/12/04 01:34:23;;;;;;;7.53;5.10;;;20.30;48.60;;;;;;5128223;27;20027;-57
2020/12/04 01:36:50;;;;;;;6.93;4.60;;;20.30;48.60;;;;;;5114569;27;20363;-51
2020/12/04 01:39:15;;;;;;;7.20;4.38;;;20.30;48.70;;;;;;5122550;27;20424;-56
2020/12/04 01:41:41;;;;;;;5.50;3.95;;;20.30;48.60;;;;;;5130699;27;20023;-54
2020/12/04 01:44:07;;;;;;;7.15;4.47;;;20.30;48.60;;;;;;5118203;27;20043;-53
2020/12/04 01:46:33;;;;;;;8.32;4.20;;;20.30;48.70;;;;;;5132129;27;20134;-56
2020/12/04 01:48:58;;;;;;;5.47;3.85;;;20.20;48.70;;;;;;5127041;27;20489;-51
2020/12/04 01:51:26;;;;;;;5.85;3.80;;;20.20;48.60;;;;;;5110106;27;20075;-56
2020/12/04 01:53:52;;;;;;;6.55;3.88;;;20.20;48.60;;;;;;5119903;27;20030;-56
2020/12/04 01:56:18;;;;;;;6.60;3.95;;;20.20;48.70;;;;;;5112093;27;20031;-53
2020/12/04 01:58:43;;;;;;;6.10;3.85;;;20.20;48.70;;;;;;5125586;27;20110;-55
2020/12/04 02:01:13;;;;;;;5.65;3.70;;;20.20;48.70;;;;;;5132818;27;20446;-56
2020/12/04 02:03:43;;;;;;;7.05;4.00;;;20.20;48.70;;;;;;5124888;27;20064;-57
2020/12/04 02:06:21;;;;;;;5.60;3.35;;;20.20;48.70;;;;;;5129646;27;20488;-52
2020/12/04 02:08:59;;;;;;;5.50;3.67;;;20.20;48.70;;;;;;5136316;27;20026;-52
2020/12/04 02:11:26;;;;;;;5.85;3.40;;;20.10;48.70;;;;;;5138922;27;20386;-51
2020/12/04 02:13:55;;;;;;;5.10;3.30;;;20.10;48.70;;;;;;5125329;27;20114;-56
2020/12/04 02:16:22;;;;;;;5.17;3.40;;;20.10;48.70;;;;;;5120140;27;20354;-52
2020/12/04 02:18:49;;;;;;;4.95;3.40;;;20.10;48.70;;;;;;5118957;27;20057;-57
2020/12/04 02:21:15;;;;;;;4.82;3.00;;;20.10;48.70;;;;;;5125727;27;20031;-55
2020/12/04 02:23:46;;;;;;;5.95;3.20;;;20.10;48.70;;;;;;5131869;27;20066;-55
2020/12/04 02:26:14;;;;;;;4.38;3.20;;;20.10;48.70;;;;;;5116508;27;20470;-57
2020/12/04 02:28:39;;;;;;;4.15;2.80;;;20.10;48.70;;;;;;5114570;27;20038;-55
2020/12/04 02:31:06;;;;;;;5.07;3.30;;;20.10;48.70;;;;;;5107441;27;20032;-55
2020/12/04 02:33:33;;;;;;;5.35;2.97;;;20.10;48.70;;;;;;5131577;27;20023;-57
2020/12/04 02:35:58;;;;;;;5.13;3.03;;;20.10;48.80;;;;;;5121633;27;20027;-57
2020/12/04 02:38:25;;;;;;;4.70;2.80;;;20.00;48.70;;;;;;5117315;27;20043;-56
2020/12/04 02:40:51;;;;;;;4.05;2.40;;;20.00;48.70;;;;;;5110721;27;20036;-58
2020/12/04 02:43:18;;;;;;;4.55;2.60;;;20.00;48.70;;;;;;5122751;27;20054;-56
2020/12/04 02:45:43;;;;;;;5.28;2.92;;;20.00;48.70;;;;;;5123279;27;20103;-56
2020/12/04 02:48:09;;;;;;;3.60;2.50;;;20.00;48.70;;;;;;5141939;27;20126;-54
2020/12/04 02:50:35;;;;;;;4.75;2.70;;;20.00;48.70;;;;;;5140302;27;20054;-54
2020/12/04 02:53:01;;;;;;;4.03;2.40;;;20.00;48.70;;;;;;5114818;27;20425;-57
2020/12/04 02:55:26;;;;;;;3.92;2.45;;;20.00;48.80;;;;;;5133970;27;20531;-58
2020/12/04 02:57:52;;;;;;;3.72;2.22;;;20.00;48.80;;;;;;5126742;27;20093;-58
2020/12/04 03:00:18;;;;;;;3.88;2.47;;;20.00;48.80;;;;;;5109377;28;20034;-57
2020/12/04 03:02:43;;;;;;;4.40;2.45;;;20.00;48.80;;;;;;5106070;28;20068;-55
2020/12/04 03:05:09;;;;;;;4.28;2.60;;;19.90;48.80;;;;;;5132127;27;20439;-56
2020/12/04 03:07:36;;;;;;;3.08;2.08;;;20.00;48.80;;;;;;5105869;27;20031;-57
2020/12/04 03:10:04;;;;;;;4.10;2.30;;;20.00;48.80;;;;;;5126561;27;20024;-57
2020/12/04 03:12:30;;;;;;;3.25;2.15;;;20.00;48.80;;;;;;5110664;27;20027;-55
2020/12/04 03:14:55;;;;;;;3.30;2.30;;;19.90;48.80;;;;;;5120772;27;20035;-54
2020/12/04 03:17:21;;;;;;;3.42;2.15;;;19.90;48.80;;;;;;5123881;27;20043;-56
2020/12/04 03:19:46;;;;;;;4.00;2.33;;;19.90;48.80;;;;;;5125194;28;20406;-56
2020/12/04 03:22:12;;;;;;;3.35;2.10;;;19.90;48.80;;;;;;5124621;28;20065;-54
2020/12/04 03:24:37;;;;;;;3.67;2.08;;;19.90;48.80;;;;;;5123571;27;20039;-58
2020/12/04 03:27:03;;;;;;;3.35;2.00;;;19.90;48.80;;;;;;5106922;27;20059;-53
2020/12/04 03:29:29;;;;;;;3.20;2.00;;;19.90;48.80;;;;;;5122410;28;20030;-58
2020/12/04 03:31:54;;;;;;;2.95;1.90;;;19.90;48.80;;;;;;5117063;28;20091;-56
2020/12/04 03:34:20;;;;;;;3.00;1.98;;;19.80;48.80;;;;;;5117385;27;20047;-57
2020/12/04 03:36:45;;;;;;;3.00;1.90;;;19.80;48.80;;;;;;5121537;27;20358;-52
2020/12/04 03:39:11;;;;;;;2.90;1.70;;;19.90;48.80;;;;;;5128598;27;20055;-57
2020/12/04 03:41:36;;;;;;;3.35;2.08;;;19.90;48.90;;;;;;5129421;27;20126;-58
2020/12/04 03:44:02;;;;;;;2.67;1.70;;;19.90;48.90;;;;;;5134711;27;20038;-56
2020/12/04 03:46:27;;;;;;;2.85;1.85;;;19.90;48.90;;;;;;5144645;27;20023;-57
2020/12/04 03:48:53;;;;;;;2.90;1.77;;;19.90;48.90;;;;;;5137145;27;20516;-56
2020/12/04 03:51:19;;;;;;;3.20;1.83;;;19.80;48.90;;;;;;5112988;27;20023;-56
2020/12/04 03:53:46;;;;;;;2.80;1.80;;;19.80;48.90;;;;;;5127628;27;20031;-57
2020/12/04 03:56:12;;;;;;;2.70;1.73;;;19.80;48.90;;;;;;5109013;28;20420;-58
2020/12/04 03:58:38;;;;;;;3.40;1.92;;;19.80;48.90;;;;;;5132293;27;20111;-56
2020/12/04 04:01:04;;;;;;;2.97;1.65;;;19.80;49.00;;;;;;5125139;27;20031;-57
2020/12/04 04:03:29;;;;;;;3.15;1.80;;;19.80;49.00;;;;;;5112499;27;20473;-55
2020/12/04 04:05:55;;;;;;;2.25;1.48;;;19.80;49.00;;;;;;5128522;27;20031;-54
2020/12/04 04:08:21;;;;;;;2.25;1.30;;;19.80;49.00;;;;;;5111474;27;20032;-56
2020/12/04 04:10:46;;;;;;;2.67;1.60;;;19.80;49.00;;;;;;5122150;27;20122;-56
2020/12/04 04:13:12;;;;;;;2.60;1.58;;;19.80;49.10;;;;;;5129762;27;20034;-57
2020/12/04 04:15:37;;;;;;;2.90;1.83;;;19.80;49.10;;;;;;5131081;27;20038;-54
2020/12/04 04:18:03;;;;;;;2.95;1.80;;;19.70;49.10;;;;;;5130516;27;20030;-54
2020/12/04 04:20:29;;;;;;;3.05;1.60;;;19.80;49.10;;;;;;5142831;27;20039;-55
2020/12/04 04:22:55;;;;;;;2.20;1.40;;;19.80;49.20;;;;;;5125169;27;20027;-52
2020/12/04 04:25:20;;;;;;;2.75;1.80;;;19.70;49.10;;;;;;5123621;27;20035;-56
2020/12/04 04:27:46;;;;;;;2.95;2.00;;;19.70;49.10;;;;;;5134308;27;20030;-55
2020/12/04 04:30:12;;;;;;;2.78;1.80;;;19.70;49.20;;;;;;5122581;27;20092;-58
2020/12/04 04:32:38;;;;;;;2.97;1.65;;;19.70;49.20;;;;;;5123445;27;20019;-54
2020/12/04 04:35:05;;;;;;;2.25;1.40;;;19.70;49.20;;;;;;5129129;27;20156;-56
2020/12/04 04:37:31;;;;;;;2.47;1.50;;;19.70;49.20;;;;;;5122338;27;20159;-58
2020/12/04 04:39:57;;;;;;;2.55;1.50;;;19.70;49.20;;;;;;5131436;27;20373;-58
2020/12/04 04:42:23;;;;;;;2.38;1.55;;;19.70;49.30;;;;;;5147640;27;20062;-58
2020/12/04 04:44:49;;;;;;;2.03;1.25;;;19.70;49.20;;;;;;5136406;27;20082;-58
2020/12/04 04:47:19;;;;;;;2.35;1.40;;;19.70;49.30;;;;;;5129036;27;20540;-54
2020/12/04 04:49:52;;;;;;;2.15;1.33;;;19.70;49.30;;;;;;5119399;27;20585;-54
2020/12/04 04:52:18;;;;;;;2.00;1.38;;;19.70;49.30;;;;;;5117319;27;20027;-55
2020/12/04 04:54:46;;;;;;;2.00;1.23;;;19.70;49.30;;;;;;5131355;27;20031;-58
2020/12/04 04:57:13;;;;;;;2.33;1.45;;;19.70;49.40;;;;;;5125231;27;20388;-57
2020/12/04 04:59:39;;;;;;;2.47;1.40;;;19.70;49.30;;;;;;5120678;27;20022;-56
2020/12/04 05:02:09;;;;;;;2.45;1.48;;;19.70;49.30;;;;;;5121364;27;20118;-54
2020/12/04 05:04:54;;;;;;;1.90;1.20;;;19.60;49.20;;;;;;5126241;27;20023;-57
2020/12/04 05:07:34;;;;;;;2.42;1.60;;;19.70;49.30;;;;;;5121447;27;20110;-56
2020/12/04 05:10:21;;;;;;;;;;;19.60;49.20;;;;;;5127536;27;20027;-54
2020/12/04 05:13:00;;;;;;;2.08;1.20;;;19.70;49.30;;;;;;5118408;27;19981;-54
2020/12/04 05:15:28;;;;;;;2.38;1.33;;;19.70;49.30;;;;;;5126099;27;20888;-51
2020/12/04 05:18:06;;;;;;;1.90;1.20;;;19.70;49.30;;;;;;5130707;27;20096;-54
2020/12/04 05:20:33;;;;;;;2.40;1.50;;;19.70;49.30;;;;;;5123934;27;20486;-58
2020/12/04 05:23:01;;;;;;;1.90;1.30;;;19.70;49.30;;;;;;5126184;27;20434;-52
2020/12/04 05:25:26;;;;;;;2.22;1.38;;;19.60;49.20;;;;;;5119215;27;20777;-56
2020/12/04 05:27:52;;;;;;;2.10;1.55;;;19.70;49.30;;;;;;5129007;27;20031;-56
2020/12/04 05:30:25;;;;;;;2.13;1.50;;;19.70;49.30;;;;;;5118360;27;20035;-58
2020/12/04 05:33:01;;;;;;;4.10;1.40;;;19.70;49.30;;;;;;5120737;27;20097;-50
2020/12/04 05:35:27;;;;;;;2.22;1.45;;;19.70;49.30;;;;;;5127847;27;20426;-58
2020/12/04 05:38:09;;;;;;;2.30;1.52;;;19.70;49.30;;;;;;5110551;27;20051;-59
2020/12/04 05:40:36;;;;;;;2.22;1.45;;;19.70;49.30;;;;;;5115643;27;20244;-55
2020/12/04 05:43:03;;;;;;;4.25;1.50;;;19.70;49.30;;;;;;5108982;27;20031;-57
2020/12/04 05:45:29;;;;;;;3.55;1.77;;;19.70;49.30;;;;;;5116727;27;20050;-56
2020/12/04 05:47:54;;;;;;;4.18;1.80;;;19.60;49.30;;;;;;5117811;27;20023;-57
2020/12/04 05:50:20;;;;;;;3.78;1.80;;;19.70;49.40;;;;;;5127778;27;20385;-57
2020/12/04 05:52:48;;;;;;;4.55;2.00;;;19.70;49.50;;;;;;5126182;27;20130;-58
2020/12/04 05:55:15;;;;;;;3.85;1.92;;;19.60;49.40;;;;;;5113009;27;20062;-56
2020/12/04 05:57:54;;;;;;;4.55;2.00;;;19.60;49.50;;;;;;5132096;27;20039;-57
2020/12/04 06:00:21;;;;;;;4.55;1.90;;;19.60;49.50;;;;;;5121410;27;20031;-55
2020/12/04 06:03:00;;;;;;;3.95;1.90;;;19.60;49.50;;;;;;5120740;27;20507;-54
2020/12/04 06:05:26;;;;;;;3.78;2.10;;;19.60;49.60;;;;;;5117544;27;20042;-58
2020/12/04 06:08:04;;;;;;;4.72;2.00;;;19.60;49.60;;;;;;5132277;27;20113;-57
2020/12/04 06:10:31;;;;;;;4.72;2.10;;;19.60;49.60;;;;;;5118441;27;20031;-56
2020/12/04 06:12:57;;;;;;;4.68;2.40;;;19.60;49.60;;;;;;5124614;27;20322;-58
2020/12/04 06:15:24;;;;;;;5.88;2.58;;;19.60;49.70;;;;;;5117728;27;20034;-59
2020/12/04 06:17:50;;;;;;;5.15;2.42;;;19.60;49.70;;;;;;5111024;27;20038;-54
2020/12/04 06:20:18;;;;;;;4.70;2.28;;;19.70;49.70;;;;;;5117091;27;20195;-57
2020/12/04 06:23:03;;;;;;;5.13;2.05;;;19.60;49.60;;;;;;5122095;27;20031;-53
2020/12/04 06:25:51;;;;;;;4.60;2.17;;;19.60;49.60;;;;;;5112415;28;20384;-55
2020/12/04 06:28:18;;;;;;;5.22;2.60;;;19.60;49.70;;;;;;5111094;27;20067;-53
2020/12/04 06:31:08;;;;;;;5.78;1.98;;;19.60;49.70;;;;;;5121310;27;20037;-57
2020/12/04 06:33:49;;;;;;;4.30;2.15;;;19.60;49.70;;;;;;5121489;27;20070;-54
2020/12/04 06:36:35;;;;;;;5.47;2.45;;;19.60;49.70;;;;;;5121830;28;20105;-56
2020/12/04 06:39:03;;;;;;;5.40;2.25;;;19.60;49.70;;;;;;5119083;27;20028;-54
2020/12/04 06:41:43;;;;;;;5.47;2.20;;;19.60;49.70;;;;;;5125157;27;20553;-57
2020/12/04 06:44:21;;;;;;;;;;;19.60;49.70;;;;;;5120663;28;20038;-55
2020/12/04 06:46:49;;;;;;;5.25;2.03;;;19.60;49.70;;;;;;5120132;28;19918;-57
2020/12/04 06:49:38;;;;;;;5.88;2.13;;;19.60;49.70;;;;;;5127590;27;20073;-54
2020/12/04 06:52:09;;;;;;;5.47;2.10;;;19.60;49.70;;;;;;5122550;27;20463;-52
2020/12/04 06:54:38;;;;;;;5.43;2.30;;;19.60;49.80;;;;;;5107608;28;20028;-54
2020/12/04 06:57:04;;;;;;;4.07;2.13;;;19.60;49.70;;;;;;5119441;27;20554;-51
2020/12/04 06:59:32;;;;;;;5.38;2.42;;;19.60;49.80;;;;;;5127361;27;20039;-54
2020/12/04 07:02:03;;;;;;;6.38;3.00;;;19.60;49.80;;;;;;5127345;27;20099;-54
2020/12/04 07:04:30;;;;;;;5.43;2.38;;;19.60;49.80;;;;;;5127669;27;20041;-56
2020/12/04 07:07:03;;;;;;;5.60;2.08;;;19.60;49.80;;;;;;5129460;27;20392;-55
2020/12/04 07:09:28;;;;;;;5.68;2.30;;;19.60;49.80;;;;;;5108529;28;20146;-55
2020/12/04 07:11:56;;;;;;;4.63;2.15;;;19.60;49.80;;;;;;5122405;27;20138;-55
2020/12/04 07:14:23;;;;;;;6.18;2.22;;;19.60;49.80;;;;;;5122643;27;20023;-53
2020/12/04 07:16:49;;;;;;;5.32;2.78;;;19.60;49.80;;;;;;5138177;27;20022;-57
2020/12/04 07:19:15;;;;;;;5.22;2.53;;;19.60;49.70;;;;;;5128720;27;20478;-56
2020/12/04 07:21:41;;;;;;;4.70;2.13;;;19.60;49.70;;;;;;5127515;27;20035;-54
2020/12/04 07:24:07;;;;;;;5.82;2.40;;;19.60;49.70;;;;;;5132415;27;20112;-56
2020/12/04 07:26:34;;;;;;;4.80;2.45;;;19.60;49.70;;;;;;5132974;27;20053;-57
2020/12/04 07:28:59;;;;;;;4.95;2.70;;;19.60;49.70;;;;;;5126606;27;20429;-56
2020/12/04 07:31:25;;;;;;;5.38;2.40;;;19.60;49.70;;;;;;5120494;27;20034;-56
2020/12/04 07:33:56;;;;;;;4.35;2.30;;;19.60;49.70;;;;;;5128180;27;20155;-54
2020/12/04 07:36:23;;;;;;;4.25;2.10;;;19.60;49.60;;;;;;5117349;27;20458;-54
2020/12/04 07:38:57;;;;;;;4.85;2.10;;;19.60;49.70;;;;;;5117784;27;20038;-57
2020/12/04 07:41:30;;;;;;;4.25;2.20;;;19.60;49.70;;;;;;5137625;27;20058;-54
2020/12/04 07:44:00;;;;;;;3.65;2.08;;;19.60;49.70;;;;;;5126542;27;20150;-56
2020/12/04 07:46:26;;;;;;;5.25;2.20;;;19.60;49.70;;;;;;5117206;27;20510;-56
2020/12/04 07:49:12;;;;;;;4.40;2.17;;;19.60;49.70;;;;;;5129521;27;20108;-51
2020/12/04 07:51:41;;;;;;;5.45;2.30;;;19.60;49.70;;;;;;5118858;27;20123;-56
2020/12/04 07:54:23;;;;;;;5.60;2.50;;;19.60;49.70;;;;;;5106069;27;20042;-55
2020/12/04 07:56:54;;;;;;;4.75;2.20;;;19.60;49.70;;;;;;5126726;27;20027;-57
2020/12/04 07:59:28;;;;;;;4.20;2.13;;;19.60;49.70;;;;;;5126891;27;20034;-54
2020/12/04 08:01:54;;;;;;;4.72;2.65;;;19.60;49.70;;;;;;5129152;27;20046;-52
2020/12/04 08:04:20;;;;;;;5.28;2.40;;;19.50;49.40;;;;;;5125879;27;20130;-55
2020/12/04 08:06:47;;;;;;;4.72;2.38;;;19.60;49.30;;;;;;5125159;27;20145;-55
2020/12/04 08:09:18;;;;;;;4.97;2.60;;;19.60;49.30;;;;;;5121825;27;20237;-56
2020/12/04 08:11:55;;;;;;;5.57;2.70;;;19.60;49.20;;;;;;5120873;27;20338;-53
2020/12/04 08:14:26;;;;;;;5.18;2.50;;;19.60;49.10;;;;;;5119327;27;20035;-53
2020/12/04 08:16:59;;;;;;;4.97;2.60;;;19.60;49.10;;;;;;5118719;27;20138;-56
2020/12/04 08:19:30;;;;;;;5.15;2.10;;;19.60;49.60;;;;;;5114548;27;20034;-55
2020/12/04 08:22:03;;;;;;;7.53;2.30;;;19.60;49.00;;;;;;5120345;27;20302;-57
2020/12/04 08:24:37;;;;;;;5.38;2.17;;;19.50;49.00;;;;;;5121125;27;20110;-58
2020/12/04 08:27:11;;;;;;;3.97;2.20;;;19.60;49.10;;;;;;5121145;27;20654;-58
2020/12/04 08:29:39;;;;;;;5.53;2.53;;;19.50;49.00;;;;;;5111785;27;20031;-57
2020/12/04 08:32:07;;;;;;;4.30;2.15;;;19.50;49.10;;;;;;5123213;27;20485;-56
2020/12/04 08:34:34;;;;;;;4.97;2.05;;;19.50;49.10;;;;;;5128473;27;20398;-57
2020/12/04 08:37:05;;;;;;;4.15;2.00;;;19.50;49.10;;;;;;5123879;27;20027;-55
2020/12/04 08:39:43;;;;;;;4.75;2.30;;;19.50;49.20;;;;;;5110445;27;20059;-54
2020/12/04 08:42:11;;;;;;;4.75;2.30;;;19.50;49.20;;;;;;5117255;27;20130;-54
2020/12/04 08:44:36;;;;;;;4.72;2.08;;;19.50;49.20;;;;;;5124844;27;20062;-53
2020/12/04 08:47:02;;;;;;;3.90;2.15;;;19.50;49.20;;;;;;5123757;27;20031;-55
2020/12/04 08:49:27;;;;;;;4.43;2.20;;;19.50;49.20;;;;;;5125119;27;20039;-51
2020/12/04 08:51:54;;;;;;;5.07;2.40;;;19.50;49.20;;;;;;5135289;27;20034;-57
2020/12/04 08:54:19;;;;;;;3.65;1.85;;;19.50;49.30;;;;;;5119932;27;20480;-54
2020/12/04 08:56:55;;;;;;;4.47;2.20;;;19.50;49.30;;;;;;5112301;27;20031;-52
2020/12/04 08:59:23;;;;;;;4.32;2.42;;;19.50;49.30;;;;;;5103035;27;20342;-52
2020/12/04 09:01:51;;;;;;;4.05;2.00;;;19.50;49.30;;;;;;5115829;27;20031;-54
2020/12/04 09:04:16;;;;;;;3.20;1.90;;;19.50;49.30;;;;;;5119909;27;20061;-52
2020/12/04 09:06:42;;;;;;;3.67;2.00;;;19.50;49.30;;;;;;5122810;27;20434;-52
2020/12/04 09:09:08;;;;;;;4.35;2.15;;;19.50;49.40;;;;;;5126894;27;20027;-53
2020/12/04 09:11:33;;;;;;;4.10;2.00;;;19.50;49.30;;;;;;5121644;27;20645;-54
2020/12/04 09:13:59;;;;;;;3.85;2.25;;;19.50;49.40;;;;;;5110876;27;20056;-55
2020/12/04 09:16:25;;;;;;;3.45;2.03;;;19.50;49.40;;;;;;5113072;27;20169;-55
2020/12/04 09:18:50;;;;;;;4.57;2.08;;;19.50;49.40;;;;;;5119978;27;20097;-51
2020/12/04 09:21:16;;;;;;;4.13;1.83;;;19.50;49.40;;;;;;5124228;27;20050;-55
2020/12/04 09:23:41;;;;;;;3.85;2.10;;;19.50;49.40;;;;;;5127804;27;20114;-55
2020/12/04 09:26:07;;;;;;;3.90;2.15;;;19.50;49.40;;;;;;5127936;27;20031;-57
2020/12/04 09:28:32;;;;;;;4.03;2.10;;;19.50;49.40;;;;;;5128372;27;20035;-56
2020/12/04 09:30:58;;;;;;;4.28;1.95;;;19.50;49.40;;;;;;5132298;27;20395;-53
2020/12/04 09:33:24;;;;;;;4.22;1.80;;;19.50;49.40;;;;;;5121164;27;20035;-52
2020/12/04 09:35:50;;;;;;;2.88;1.67;;;19.40;49.40;;;;;;5121688;27;20134;-54
2020/12/04 09:38:15;;;;;;;4.10;2.17;;;19.50;49.50;;;;;;5137852;27;20061;-52
2020/12/04 09:40:41;;;;;;;4.32;2.10;;;19.40;49.40;;;;;;5140297;27;20052;-55
2020/12/04 09:43:07;;;;;;;3.42;1.88;;;19.40;49.40;;;;;;5109958;27;20031;-55
2020/12/04 09:45:32;;;;;;;3.22;1.70;;;19.40;49.50;;;;;;5123773;27;20027;-57
2020/12/04 09:47:58;;;;;;;3.35;1.92;;;19.40;49.40;;;;;;5133095;27;20061;-56
2020/12/04 09:50:24;;;;;;;3.88;2.00;;;19.40;49.50;;;;;;5124055;27;20523;-55
2020/12/04 09:52:50;;;;;;;3.88;1.98;;;19.40;49.50;;;;;;5128029;27;20016;-52
2020/12/04 09:55:16;;;;;;;3.10;1.75;;;19.40;49.50;;;;;;5127191;27;20042;-56
2020/12/04 09:57:42;;;;;;;4.60;2.30;;;19.40;49.50;;;;;;5131460;27;20207;-52
2020/12/04 10:00:09;;;;;;;3.65;1.85;;;19.40;49.50;;;;;;5123392;27;20072;-55
2020/12/04 10:02:34;;;;;;;3.80;2.05;;;19.40;49.50;;;;;;5119677;27;20409;-55
2020/12/04 10:05:00;;;;;;;3.10;1.95;;;19.40;49.90;;;;;;5107807;27;20054;-50
2020/12/04 10:07:26;;;;;;;3.85;2.08;;;19.40;50.00;;;;;;5136913;27;20494;-53
2020/12/04 10:09:51;;;;;;;4.07;2.13;;;19.40;49.50;;;;;;5143386;27;20091;-53
2020/12/04 10:12:17;;;;;;;5.05;2.00;;;19.40;49.50;;;;;;5131146;27;20922;-54
2020/12/04 10:14:43;;;;;;;3.70;2.15;;;19.40;49.50;;;;;;5113716;27;20020;-54
2020/12/04 10:17:08;;;;;;;3.70;2.00;;;19.40;49.50;;;;;;5125026;27;20023;-54
2020/12/04 10:19:34;;;;;;;3.53;2.10;;;19.40;49.50;;;;;;5118350;27;20609;-52
2020/12/04 10:22:00;;;;;;;5.00;2.20;;;19.40;49.50;;;;;;5122916;27;20096;-51
2020/12/04 10:24:27;;;;;;;3.35;1.95;;;19.40;49.50;;;;;;5108845;27;20099;-58
2020/12/04 10:26:53;;;;;;;6.75;3.63;;;19.40;49.50;;;;;;5116794;27;20123;-53
2020/12/04 10:29:21;;;;;;;6.65;4.15;;;19.40;48.00;;;;;;5120712;27;20124;-54
2020/12/04 10:31:47;;;;;;;11.07;8.43;;;19.40;44.70;;;;;;5125705;27;20103;-56
2020/12/04 10:34:15;;;;;;;9.98;7.85;;;19.20;40.70;;;;;;5126545;27;20485;-51
2020/12/04 10:36:41;;;;;;;9.50;7.30;;;19.00;41.80;;;;;;5116965;27;20650;-58
2020/12/04 10:39:09;;;;;;;8.50;6.05;;;19.00;43.20;;;;;;5121152;27;20501;-55
2020/12/04 10:41:36;;;;;;;7.38;5.18;;;19.10;43.80;;;;;;5112930;27;20486;-57
2020/12/04 10:44:04;;;;;;;5.93;4.40;;;19.10;44.40;;;;;;5126165;27;20097;-56
2020/12/04 10:46:31;;;;;;;6.38;4.63;;;19.10;45.10;;;;;;5138839;27;20038;-56
2020/12/04 10:48:56;;;;;;;5.85;4.50;;;19.10;45.50;;;;;;5136139;27;20172;-58
2020/12/04 10:51:22;;;;;;;6.60;4.45;;;19.10;45.70;;;;;;5136054;27;20827;-52
2020/12/04 10:53:48;;;;;;;5.38;4.00;;;19.20;45.60;;;;;;5130785;27;20027;-57
2020/12/04 10:56:17;;;;;;;6.43;4.03;;;19.20;45.60;;;;;;5135006;27;20027;-57
2020/12/04 10:58:43;;;;;;;6.07;4.35;;;19.20;45.60;;;;;;5120128;27;20031;-53
2020/12/04 11:01:13;;;;;;;5.70;3.88;;;19.20;45.80;;;;;;5147991;27;20027;-57
2020/12/04 11:05:29;;;;;;;5.97;3.80;;;19.20;46.20;;;;;;5137475;27;20020;-57
2020/12/04 11:06:27;;;;;;;6.25;3.92;;;19.20;46.30;;;;;;5123170;27;20063;-53
2020/12/04 11:08:53;;;;;;;5.18;3.60;;;19.20;46.40;;;;;;5109090;27;20449;-52
2020/12/04 11:11:25;;;;;;;5.82;3.63;;;19.20;46.60;;;;;;5123792;27;20027;-54
2020/12/04 11:13:50;;;;;;;5.10;3.40;;;19.20;46.80;;;;;;5116131;27;20066;-57
2020/12/04 11:16:16;;;;;;;7.68;3.97;;;19.20;47.00;;;;;;5121097;27;20809;-55
2020/12/04 11:18:42;;;;;;;5.95;3.80;;;19.20;47.30;;;;;;5128759;27;20020;-60
2020/12/04 11:21:08;;;;;;;5.95;3.88;;;19.20;47.50;;;;;;5117430;27;20033;-56
2020/12/04 11:23:34;;;;;;;7.72;3.92;;;19.20;48.20;;;;;;5113625;27;20110;-54
2020/12/04 11:25:59;;;;;;;7.07;4.22;;;19.30;48.30;;;;;;5131121;27;20382;-56
2020/12/04 11:28:25;;;;;;;6.20;4.18;;;19.20;48.30;;;;;;5122401;27;20239;-54
2020/12/04 11:30:51;;;;;;;6.20;3.83;;;19.20;48.40;;;;;;5133019;27;20027;-56
2020/12/04 11:33:16;;;;;;;5.90;3.78;;;19.30;48.60;;;;;;5114504;27;20115;-55
2020/12/04 11:35:42;;;;;;;6.35;3.67;;;19.20;48.60;;;;;;5119392;27;20449;-55
2020/12/04 11:38:08;;;;;;;5.93;3.92;;;19.20;48.70;;;;;;5123181;27;20613;-56
2020/12/04 11:40:34;;;;;;;5.95;3.83;;;19.20;48.80;;;;;;5117001;27;20427;-54
2020/12/04 11:43:01;;;;;;;6.38;4.10;;;19.20;48.90;;;;;;5145453;27;20099;-59
2020/12/04 11:45:26;;;;;;;5.82;4.00;;;19.30;49.00;;;;;;5138162;27;20035;-54
2020/12/04 11:47:52;;;;;;;5.75;3.90;;;19.30;49.10;;;;;;5127985;27;20031;-53
2020/12/04 11:50:18;;;;;;;6.13;4.00;;;19.30;49.10;;;;;;5124948;27;20092;-57
2020/12/04 11:52:44;;;;;;;6.50;4.30;;;19.30;49.10;;;;;;5127213;27;20023;-52
2020/12/04 11:55:11;;;;;;;5.38;3.83;;;19.20;49.70;;;;;;5124130;27;20027;-56
2020/12/04 11:57:38;;;;;;;6.82;4.10;;;19.30;49.20;;;;;;5124992;27;20031;-53
2020/12/04 12:00:06;;;;;;;6.35;4.35;;;19.30;49.20;;;;;;5137135;27;20035;-53
2020/12/04 12:02:32;;;;;;;6.18;3.92;;;19.30;49.30;;;;;;5116242;27;20106;-58
2020/12/04 12:04:57;;;;;;;5.90;3.90;;;19.30;49.30;;;;;;5129681;27;20114;-52
2020/12/04 12:07:23;;;;;;;7.72;4.25;;;19.30;49.30;;;;;;5124430;27;20039;-55
2020/12/04 12:09:49;;;;;;;7.25;3.97;;;19.30;49.30;;;;;;5117857;27;20046;-52
2020/12/04 12:12:16;;;;;;;6.20;4.30;;;19.20;49.20;;;;;;5119190;27;20118;-57
2020/12/04 12:14:44;;;;;;;6.35;4.18;;;19.30;49.30;;;;;;5121276;27;20423;-56
2020/12/04 12:17:11;;;;;;;7.20;4.25;;;19.30;49.30;;;;;;5121642;27;20545;-54
2020/12/04 12:19:37;;;;;;;5.88;3.88;;;19.30;49.30;;;;;;5121164;27;20043;-56
2020/12/04 12:22:02;;;;;;;6.60;4.20;;;19.30;49.30;;;;;;5122639;27;20492;-54
2020/12/04 12:24:28;;;;;;;5.70;3.90;;;19.30;49.30;;;;;;5122127;27;20122;-56
2020/12/04 12:26:53;;;;;;;7.53;4.28;;;19.30;49.30;;;;;;5113424;27;20023;-53
2020/12/04 12:29:19;;;;;;;7.30;4.13;;;19.30;49.30;;;;;;5141413;27;20026;-57
2020/12/04 12:31:45;;;;;;;6.95;4.43;;;19.30;49.30;;;;;;5133545;27;20054;-54
2020/12/04 12:34:10;;;;;;;6.72;4.07;;;19.30;49.30;;;;;;5129715;27;20081;-55
2020/12/04 12:36:36;;;;;;;6.65;4.15;;;19.30;49.30;;;;;;5137064;27;20022;-55
2020/12/04 12:39:02;;;;;;;7.05;4.00;;;19.30;49.30;;;;;;5128096;27;20038;-54
2020/12/04 12:41:28;;;;;;;6.10;3.75;;;19.30;49.30;;;;;;5121603;27;20027;-52
2020/12/04 12:43:53;;;;;;;6.88;4.07;;;19.30;49.30;;;;;;5122024;27;20046;-53
2020/12/04 12:46:20;;;;;;;6.05;4.10;;;19.30;49.30;;;;;;5130505;27;20027;-54
2020/12/04 12:48:45;;;;;;;7.68;4.28;;;19.30;49.80;;;;;;5127711;27;20120;-54